createdAt,value
2022-08-24T00:00:50.125Z,98158.66
2022-08-24T00:04:53.461Z,98155.50
2022-08-24T00:08:57.869Z,98161.22
2022-08-24T00:12:59.951Z,98165.25
2022-08-24T00:17:02.357Z,98165.72
2022-08-24T00:21:05.624Z,98156.63
2022-08-24T00:25:10.188Z,98162.69
2022-08-24T00:29:14.773Z,98166.75
2022-08-24T00:33:17.039Z,98169.84
2022-08-24T00:37:19.156Z,98168.56
2022-08-24T00:41:22.507Z,98164.53
2022-08-24T00:45:24.903Z,98165.72
2022-08-24T00:49:26.920Z,98167.72
2022-08-24T00:53:35.367Z,98160.44
2022-08-24T00:57:43.883Z,98150.53
2022-08-24T01:01:47.929Z,98153.72
2022-08-24T01:05:50.173Z,98152.34
2022-08-24T01:09:54.508Z,98146.31
2022-08-24T01:13:56.808Z,98148.84
2022-08-24T01:18:19.212Z,98155.84
2022-08-24T01:22:58.894Z,98162.44
2022-08-24T01:27:02.329Z,98161.88
2022-08-24T01:31:04.730Z,98155.28
2022-08-24T01:35:07.839Z,98159.94
2022-08-24T01:39:34.020Z,98168.09
2022-08-24T01:43:37.412Z,98163.06
2022-08-24T01:47:42.014Z,98172.50
2022-08-24T01:51:45.748Z,98169.97
2022-08-24T01:55:48.842Z,98165.50
2022-08-24T01:59:51.962Z,98167.81
2022-08-24T02:03:54.076Z,98177.91
2022-08-24T02:07:58.284Z,98178.25
2022-08-24T02:12:00.553Z,98180.19
2022-08-24T02:16:03.062Z,98177.22
2022-08-24T02:20:08.977Z,98185.50
2022-08-24T02:24:11.831Z,98177.03
2022-08-24T02:28:14.188Z,98184.91
2022-08-24T02:32:16.293Z,98186.19
2022-08-24T02:36:25.929Z,98190.25
2022-08-24T02:40:32.309Z,98195.13
2022-08-24T02:44:35.230Z,98191.63
2022-08-24T02:48:37.307Z,98194.06
2022-08-24T02:52:40.151Z,98189.69
2022-08-24T02:56:42.938Z,98180.13
2022-08-24T03:00:47.319Z,98191.69
2022-08-24T03:04:52.165Z,98191.81
2022-08-24T03:08:57.064Z,98201.66
2022-08-24T03:13:01.413Z,98199.00
2022-08-24T03:17:04.990Z,98206.00
2022-08-24T03:21:07.261Z,98203.38
2022-08-24T03:25:16.673Z,98193.94
2022-08-24T03:29:19.091Z,98192.94
2022-08-24T03:33:21.849Z,98192.94
2022-08-24T03:37:24.087Z,98193.16
2022-08-24T03:41:27.382Z,98181.69
2022-08-24T03:45:30.021Z,98182.56
2022-08-24T03:49:32.857Z,98188.81
2022-08-24T03:53:35.522Z,98187.84
2022-08-24T03:57:42.078Z,98193.38
2022-08-24T04:01:44.187Z,98185.94
2022-08-24T04:05:46.292Z,98180.22
2022-08-24T04:09:50.424Z,98173.81
2022-08-24T04:13:56.623Z,98186.34
2022-08-24T04:17:58.894Z,98189.72
2022-08-24T04:22:01.117Z,98192.38
2022-08-24T04:26:05.037Z,98195.88
2022-08-24T04:30:07.805Z,98194.09
2022-08-24T04:34:24.051Z,98191.22
2022-08-24T04:38:26.901Z,98191.66
2022-08-24T04:42:49.363Z,98192.63
2022-08-24T04:46:51.417Z,98195.41
2022-08-24T04:50:54.906Z,98194.91
2022-08-24T04:54:57.349Z,98194.28
2022-08-24T04:59:01.749Z,98200.41
2022-08-24T05:03:04.385Z,98202.13
2022-08-24T05:07:06.723Z,98203.69
2022-08-24T05:11:09.541Z,98206.16
2022-08-24T05:15:12.985Z,98216.78
2022-08-24T05:19:17.678Z,98211.22
2022-08-24T05:23:19.762Z,98216.00
2022-08-24T05:27:22.653Z,98217.09
2022-08-24T05:31:30.529Z,98218.88
2022-08-24T05:35:39.443Z,98220.97
2022-08-24T05:39:45.879Z,98217.03
2022-08-24T05:43:49.112Z,98225.28
2022-08-24T05:47:51.283Z,98228.53
2022-08-24T05:52:11.911Z,98223.25
2022-08-24T05:56:17.191Z,98216.25
2022-08-24T06:00:19.529Z,98222.44
2022-08-24T06:04:24.997Z,98223.78
2022-08-24T06:08:28.506Z,98221.03
2022-08-24T06:12:33.257Z,98219.50
2022-08-24T06:16:37.215Z,98230.69
2022-08-24T06:20:42.424Z,98221.41
2022-08-24T06:25:03.467Z,98223.31
2022-08-24T06:29:07.628Z,98216.91
2022-08-24T06:33:15.498Z,98222.31
2022-08-24T06:37:19.396Z,98218.44
2022-08-24T06:41:23.395Z,98229.28
2022-08-24T06:45:25.629Z,98234.16
2022-08-24T06:49:27.795Z,98231.47
2022-08-24T06:53:30.358Z,98230.47
2022-08-24T06:57:33.366Z,98231.47
2022-08-24T07:01:35.705Z,98234.16
2022-08-24T07:05:37.864Z,98238.09
2022-08-24T07:09:53.492Z,98242.34
2022-08-24T07:13:55.547Z,98238.31
2022-08-24T07:17:59.201Z,98248.53
2022-08-24T07:22:01.324Z,98247.97
2022-08-24T07:26:21.478Z,98247.00
2022-08-24T07:30:27.700Z,98238.63
2022-08-24T07:34:32.807Z,98247.47
2022-08-24T07:38:35.715Z,98251.78
2022-08-24T07:42:40.068Z,98250.91
2022-08-24T07:46:42.372Z,98249.03
2022-08-24T07:50:45.713Z,98245.44
2022-08-24T07:54:49.584Z,98255.72
2022-08-24T07:58:54.339Z,98257.22
2022-08-24T08:02:57.532Z,98259.63
2022-08-24T08:07:01.618Z,98262.97
2022-08-24T08:11:07.076Z,98262.75
2022-08-24T08:15:10.777Z,98265.16
2022-08-24T08:19:17.810Z,98267.59
2022-08-24T08:23:40.395Z,98269.97
2022-08-24T08:27:52.477Z,98267.66
2022-08-24T08:31:55.853Z,98277.09
2022-08-24T08:36:09.286Z,98274.06
2022-08-24T08:40:43.842Z,98272.13
2022-08-24T08:45:18.547Z,98274.94
2022-08-24T08:49:58.397Z,98271.13
2022-08-24T08:54:12.230Z,98268.97
2022-08-24T08:58:32.934Z,98272.47
2022-08-24T09:02:58.188Z,98264.09
2022-08-24T09:07:14.113Z,98263.31
2022-08-24T09:11:32.303Z,98261.34
2022-08-24T09:15:57.836Z,98267.63
2022-08-24T09:20:12.770Z,98264.78
2022-08-24T09:24:28.418Z,98267.34
2022-08-24T09:28:48.134Z,98272.41
2022-08-24T09:32:57.188Z,98258.09
2022-08-24T09:37:29.467Z,98255.50
2022-08-24T09:41:51.382Z,98259.41
2022-08-24T09:46:26.260Z,98253.69
2022-08-24T09:50:56.546Z,98252.56
2022-08-24T09:55:26.777Z,98252.53
2022-08-24T09:59:52.902Z,98253.31
2022-08-24T10:04:03.968Z,98252.63
2022-08-24T10:08:34.163Z,98257.00
2022-08-24T10:12:39.657Z,98260.22
2022-08-24T10:16:58.909Z,98255.78
2022-08-24T10:21:19.130Z,98255.94
2022-08-24T10:25:36.063Z,98247.31
2022-08-24T10:29:55.434Z,98252.69
2022-08-24T10:34:06.613Z,98247.28
2022-08-24T10:38:42.437Z,98235.47
2022-08-24T10:43:35.947Z,98229.69
2022-08-24T10:48:01.265Z,98235.94
2022-08-24T10:52:16.894Z,98240.13
2022-08-24T10:56:40.742Z,98228.84
2022-08-24T11:00:42.997Z,98234.63
2022-08-24T11:04:56.127Z,98237.44
2022-08-24T11:09:08.600Z,98242.69
2022-08-24T11:13:27.228Z,98233.56
2022-08-24T11:17:31.996Z,98239.81
2022-08-24T11:21:54.887Z,98238.59
2022-08-24T11:26:12.707Z,98236.09
2022-08-24T11:30:17.501Z,98238.78
2022-08-24T11:34:33.082Z,98235.72
2022-08-24T11:38:35.133Z,98226.25
2022-08-24T11:43:14.142Z,98228.72
2022-08-24T11:47:42.421Z,98224.78
2022-08-24T11:51:44.459Z,98221.63
2022-08-24T11:56:00.343Z,98215.53
2022-08-24T12:00:18.589Z,98212.44
2022-08-24T12:04:32.175Z,98218.78
2022-08-24T12:08:41.830Z,98201.31
2022-08-24T12:12:50.757Z,98207.78
2022-08-24T12:17:28.017Z,98193.56
2022-08-24T12:21:36.898Z,98195.84
2022-08-24T12:25:57.647Z,98188.28
2022-08-24T12:30:15.033Z,98198.28
2022-08-24T12:34:37.320Z,98184.53
2022-08-24T12:38:45.257Z,98194.06
2022-08-24T12:42:56.057Z,98190.75
2022-08-24T12:46:58.633Z,98194.47
2022-08-24T12:51:22.720Z,98186.09
2022-08-24T12:55:30.621Z,98178.81
2022-08-24T12:59:45.436Z,98180.75
2022-08-24T13:04:02.353Z,98182.91
2022-08-24T13:08:17.628Z,98181.56
2022-08-24T13:12:38.088Z,98178.91
2022-08-24T13:17:07.515Z,98177.97
2022-08-24T13:21:16.757Z,98164.50
2022-08-24T13:25:25.880Z,98169.28
2022-08-24T13:29:33.381Z,98149.66
2022-08-24T13:33:44.818Z,98161.31
2022-08-24T13:38:25.661Z,98153.03
2022-08-24T13:42:52.252Z,98149.47
2022-08-24T13:47:44.920Z,98150.25
2022-08-24T13:52:19.606Z,98145.69
2022-08-24T13:56:26.915Z,98143.69
2022-08-24T14:00:49.427Z,98146.47
2022-08-24T14:05:24.127Z,98141.97
2022-08-24T14:09:36.126Z,98141.38
2022-08-24T14:14:01.090Z,98138.38
2022-08-24T14:18:44.518Z,98141.50
2022-08-24T14:23:40.527Z,98139.09
2022-08-24T14:27:50.541Z,98130.66
2022-08-24T14:32:00.051Z,98133.34
2022-08-24T14:36:21.538Z,98130.72
2022-08-24T14:40:32.940Z,98120.06
2022-08-24T14:44:57.338Z,98120.44
2022-08-24T14:49:16.536Z,98110.13
2022-08-24T14:53:47.021Z,98108.78
2022-08-24T14:58:12.866Z,98107.75
2022-08-24T15:02:51.586Z,98111.56
2022-08-24T15:06:58.969Z,98102.81
2022-08-24T15:11:13.384Z,98099.69
2022-08-24T15:15:31.597Z,98105.81
2022-08-24T15:20:03.319Z,98094.94
2022-08-24T15:24:16.486Z,98099.50
2022-08-24T15:28:24.031Z,98090.97
2022-08-24T15:32:49.155Z,98087.22
2022-08-24T15:37:01.561Z,98084.63
2022-08-24T15:41:13.127Z,98085.47
2022-08-24T15:45:15.240Z,98084.16
2022-08-24T15:49:25.225Z,98082.22
2022-08-24T15:53:41.589Z,98090.88
2022-08-24T15:57:44.494Z,98083.00
2022-08-24T16:02:14.417Z,98084.88
2022-08-24T16:06:31.257Z,98091.00
2022-08-24T16:10:39.325Z,98097.09
2022-08-24T16:14:48.773Z,98085.16
2022-08-24T16:18:58.334Z,98088.63
2022-08-24T16:23:10.752Z,98089.00
2022-08-24T16:27:16.498Z,98083.97
2022-08-24T16:31:41.605Z,98089.22
2022-08-24T16:35:43.670Z,98093.31
2022-08-24T16:39:47.147Z,98094.56
2022-08-24T16:43:49.510Z,98093.72
2022-08-24T16:47:51.581Z,98091.19
2022-08-24T16:51:53.661Z,98088.59
2022-08-24T16:55:55.874Z,98088.00
2022-08-24T16:59:58.299Z,98097.81
2022-08-24T17:04:00.425Z,98093.91
2022-08-24T17:08:02.909Z,98095.28
2022-08-24T17:12:05.667Z,98093.69
2022-08-24T17:16:10.299Z,98094.91
2022-08-24T17:20:12.401Z,98097.41
2022-08-24T17:24:17.655Z,98091.56
2022-08-24T17:28:20.173Z,98087.63
2022-08-24T17:32:22.210Z,98099.50
2022-08-24T17:36:25.072Z,98100.25
2022-08-24T17:40:29.938Z,98100.31
2022-08-24T17:44:33.523Z,98097.03
2022-08-24T17:48:35.790Z,98103.47
2022-08-24T17:52:38.911Z,98103.69
2022-08-24T17:56:41.309Z,98111.00
2022-08-24T18:00:44.857Z,98104.00
2022-08-24T18:04:47.206Z,98112.84
2022-08-24T18:08:54.306Z,98119.94
2022-08-24T18:13:00.252Z,98121.69
2022-08-24T18:17:06.487Z,98132.38
2022-08-24T18:21:08.662Z,98129.91
2022-08-24T18:25:13.088Z,98129.53
2022-08-24T18:29:18.325Z,98140.84
2022-08-24T18:33:22.961Z,98136.31
2022-08-24T18:37:25.121Z,98139.69
2022-08-24T18:41:35.673Z,98135.44
2022-08-24T18:45:38.556Z,98150.41
2022-08-24T18:49:40.775Z,98145.34
2022-08-24T18:53:43.287Z,98148.34
2022-08-24T18:57:45.316Z,98153.03
2022-08-24T19:02:08.871Z,98146.97
2022-08-24T19:06:11.104Z,98150.25
2022-08-24T19:10:16.550Z,98151.22
2022-08-24T19:14:18.623Z,98157.56
2022-08-24T19:18:21.807Z,98163.72
2022-08-24T19:22:25.051Z,98164.53
2022-08-24T19:26:27.136Z,98161.97
2022-08-24T19:30:29.219Z,98162.94
2022-08-24T19:34:31.511Z,98157.31
2022-08-24T19:38:34.397Z,98163.31
2022-08-24T19:42:36.566Z,98157.72
2022-08-24T19:46:39.117Z,98163.91
2022-08-24T19:50:41.578Z,98164.84
2022-08-24T19:54:45.737Z,98165.44
2022-08-24T19:58:52.819Z,98162.56
2022-08-24T20:02:56.887Z,98156.28
2022-08-24T20:06:58.957Z,98162.41
2022-08-24T20:11:01.092Z,98162.84
2022-08-24T20:15:04.451Z,98166.00
2022-08-24T20:19:06.681Z,98163.09
2022-08-24T20:23:08.837Z,98167.94
2022-08-24T20:27:19.117Z,98161.63
2022-08-24T20:31:28.011Z,98173.66
2022-08-24T20:35:30.934Z,98182.25
2022-08-24T20:39:34.455Z,98180.34
2022-08-24T20:43:36.499Z,98186.78
2022-08-24T20:47:45.680Z,98190.16
2022-08-24T20:51:47.752Z,98187.28
2022-08-24T20:55:50.015Z,98183.78
2022-08-24T20:59:52.052Z,98176.91
2022-08-24T21:03:54.177Z,98181.44
2022-08-24T21:07:57.934Z,98181.75
2022-08-24T21:12:01.486Z,98191.91
2022-08-24T21:16:04.518Z,98180.66
2022-08-24T21:20:08.054Z,98187.06
2022-08-24T21:24:10.750Z,98176.97
2022-08-24T21:28:15.082Z,98186.81
2022-08-24T21:32:35.884Z,98188.16
2022-08-24T21:36:39.291Z,98187.84
2022-08-24T21:40:41.361Z,98191.13
2022-08-24T21:44:44.248Z,98198.41
2022-08-24T21:48:47.978Z,98193.72
2022-08-24T21:52:51.209Z,98197.16
2022-08-24T21:56:55.776Z,98194.84
2022-08-24T22:00:59.015Z,98193.00
2022-08-24T22:05:01.751Z,98191.81
2022-08-24T22:09:04.843Z,98188.97
2022-08-24T22:13:07.373Z,98193.34
2022-08-24T22:17:10.132Z,98186.03
2022-08-24T22:21:17.945Z,98190.41
2022-08-24T22:25:20.027Z,98188.97
2022-08-24T22:29:22.169Z,98184.38
2022-08-24T22:33:25.669Z,98176.75
2022-08-24T22:37:27.775Z,98179.00
2022-08-24T22:41:30.452Z,98180.06
2022-08-24T22:45:34.536Z,98172.81
2022-08-24T22:49:39.711Z,98184.38
2022-08-24T22:53:41.761Z,98186.81
2022-08-24T22:57:43.804Z,98193.41
2022-08-24T23:01:49.084Z,98186.38
2022-08-24T23:05:51.200Z,98199.72
2022-08-24T23:09:53.240Z,98199.94
2022-08-24T23:13:57.349Z,98192.09
2022-08-24T23:18:19.381Z,98192.59
2022-08-24T23:22:21.671Z,98183.53
2022-08-24T23:26:24.222Z,98188.13
2022-08-24T23:30:26.322Z,98189.44
2022-08-24T23:34:29.147Z,98194.19
2022-08-24T23:38:32.619Z,98187.72
2022-08-24T23:42:34.702Z,98193.78
2022-08-24T23:46:37.652Z,98183.84
2022-08-24T23:50:46.390Z,98187.09
2022-08-24T23:54:49.304Z,98186.25
2022-08-24T23:58:53.070Z,98178.38
